createdAt,value
2018-04-14T00:02:00.656Z,63.85
2018-04-14T00:04:28.208Z,63.48
2018-04-14T00:06:55.883Z,63.55
2018-04-14T00:09:23.438Z,63.96
2018-04-14T00:11:50.990Z,64.17
2018-04-14T00:14:18.564Z,64.39
2018-04-14T00:16:46.109Z,64.60
2018-04-14T00:19:13.660Z,64.67
2018-04-14T00:21:41.243Z,64.61
2018-04-14T00:24:08.807Z,64.41
2018-04-14T00:26:36.363Z,64.83
2018-04-14T00:29:04.056Z,65.14
2018-04-14T00:31:31.602Z,65.22
2018-04-14T00:33:59.875Z,65.44
2018-04-14T00:36:27.589Z,65.52
2018-04-14T00:38:55.141Z,65.86
2018-04-14T00:41:22.689Z,66.04
2018-04-14T00:43:50.412Z,66.07
2018-04-14T00:46:17.966Z,66.11
2018-04-14T00:48:45.541Z,66.28
2018-04-14T00:51:13.149Z,66.33
2018-04-14T00:53:47.510Z,66.29
2018-04-14T00:56:15.285Z,66.33
2018-04-14T00:58:42.836Z,66.33
2018-04-14T01:01:10.379Z,66.48
2018-04-14T01:03:37.971Z,66.73
2018-04-14T01:06:05.533Z,66.96
2018-04-14T01:08:33.080Z,67.83
2018-04-14T01:11:00.800Z,67.45
2018-04-14T01:13:28.348Z,67.39
2018-04-14T01:15:55.896Z,67.50
2018-04-14T01:18:23.478Z,67.65
2018-04-14T01:20:51.015Z,67.65
2018-04-14T01:23:18.556Z,67.90
2018-04-14T01:25:46.143Z,67.97
2018-04-14T01:28:13.703Z,68.01
2018-04-14T01:30:41.247Z,68.15
2018-04-14T01:33:09.008Z,68.47
2018-04-14T01:35:36.548Z,68.79
2018-04-14T01:38:04.093Z,68.93
2018-04-14T01:40:31.823Z,69.25
2018-04-14T01:42:59.383Z,69.37
2018-04-14T01:45:26.955Z,69.50
2018-04-14T01:47:54.524Z,69.60
2018-04-14T01:50:22.076Z,69.90
2018-04-14T01:52:49.619Z,70.23
2018-04-14T01:55:17.219Z,70.48
2018-04-14T01:57:44.771Z,70.70
2018-04-14T02:00:12.319Z,70.83
2018-04-14T02:02:39.860Z,71.07
2018-04-14T02:05:07.393Z,71.16
2018-04-14T02:07:35.124Z,71.20
2018-04-14T02:10:02.696Z,71.37
2018-04-14T02:12:30.245Z,71.46
2018-04-14T02:14:57.815Z,71.60
2018-04-14T02:17:25.384Z,71.76
2018-04-14T02:19:52.927Z,71.96
2018-04-14T02:22:20.514Z,72.15
2018-04-14T02:24:48.050Z,72.38
2018-04-14T02:27:15.602Z,72.47
2018-04-14T02:29:43.316Z,72.51
2018-04-14T02:32:10.867Z,72.63
2018-04-14T02:34:38.430Z,72.92
2018-04-14T02:37:06.035Z,72.81
2018-04-14T02:39:33.579Z,72.79
2018-04-14T02:42:01.160Z,72.75
2018-04-14T02:44:28.736Z,72.73
2018-04-14T02:46:56.305Z,72.82
2018-04-14T02:49:23.860Z,72.96
2018-04-14T02:51:51.460Z,73.23
2018-04-14T02:54:19.013Z,73.36
2018-04-14T02:56:46.554Z,74.07
2018-04-14T02:59:14.277Z,73.99
2018-04-14T03:01:41.846Z,73.87
2018-04-14T03:04:09.383Z,73.94
2018-04-14T03:06:36.972Z,73.94
2018-04-14T03:09:07.342Z,73.92
2018-04-14T03:11:34.879Z,73.87
2018-04-14T03:14:02.468Z,73.58
2018-04-14T03:16:30.016Z,73.53
2018-04-14T03:18:57.567Z,73.63
2018-04-14T03:21:25.152Z,73.79
2018-04-14T03:23:52.701Z,73.85
2018-04-14T03:26:20.248Z,73.87
2018-04-14T03:28:47.838Z,73.89
2018-04-14T03:31:15.458Z,73.82
2018-04-14T03:33:42.962Z,73.91
2018-04-14T03:36:10.836Z,74.03
2018-04-14T03:38:38.382Z,74.17
2018-04-14T03:41:05.942Z,74.31
2018-04-14T03:43:33.972Z,74.49
2018-04-14T03:46:01.533Z,74.63
2018-04-14T03:48:29.158Z,74.66
2018-04-14T03:50:56.877Z,74.70
2018-04-14T03:53:24.424Z,75.09
2018-04-14T03:55:51.976Z,75.37
2018-04-14T03:58:19.669Z,75.18
2018-04-14T04:00:47.221Z,74.83
2018-04-14T04:03:14.769Z,74.45
2018-04-14T04:05:42.352Z,74.00
2018-04-14T04:08:09.910Z,73.41
2018-04-14T04:10:37.462Z,72.54
2018-04-14T04:13:05.192Z,71.08
2018-04-14T04:15:33.662Z,69.42
2018-04-14T04:18:01.231Z,67.65
2018-04-14T04:20:40.457Z,65.89
2018-04-14T04:23:19.575Z,63.65
2018-04-14T04:25:47.392Z,61.55
2018-04-14T04:28:14.960Z,59.19
2018-04-14T04:30:42.505Z,57.51
2018-04-14T04:33:10.146Z,55.47
2018-04-14T04:35:37.692Z,53.32
2018-04-14T04:38:05.228Z,51.34
2018-04-14T04:40:32.885Z,48.80
2018-04-14T04:43:00.432Z,47.26
2018-04-14T04:45:27.984Z,45.04
2018-04-14T04:47:55.717Z,43.33
2018-04-14T04:50:23.277Z,42.59
2018-04-14T04:52:50.818Z,40.20
2018-04-14T04:55:18.405Z,39.33
2018-04-14T04:57:45.964Z,38.06
2018-04-14T05:00:13.509Z,37.12
2018-04-14T05:02:41.057Z,36.37
2018-04-14T05:05:08.636Z,34.58
2018-04-14T05:07:36.232Z,33.24
2018-04-14T05:10:03.812Z,32.74
2018-04-14T05:12:31.362Z,31.88
2018-04-14T05:14:59.086Z,30.31
2018-04-14T05:17:26.635Z,30.00
2018-04-14T05:19:54.176Z,28.43
2018-04-14T05:22:21.770Z,28.38
2018-04-14T05:24:49.335Z,27.94
2018-04-14T05:27:16.870Z,27.89
2018-04-14T05:29:44.451Z,28.03
2018-04-14T05:32:12.013Z,26.88
2018-04-14T05:34:39.584Z,26.82
2018-04-14T05:37:07.168Z,26.84
2018-04-14T05:39:34.715Z,27.68
2018-04-14T05:42:02.269Z,27.76
2018-04-14T05:44:30.117Z,28.27
2018-04-14T05:46:57.666Z,28.83
2018-04-14T05:49:25.245Z,29.37
2018-04-14T05:51:52.836Z,30.17
2018-04-14T05:54:20.385Z,30.83
2018-04-14T05:56:47.943Z,32.00
2018-04-14T05:59:15.826Z,32.65
2018-04-14T06:01:43.372Z,33.56
2018-04-14T06:04:10.929Z,33.56
2018-04-14T06:06:38.508Z,34.10
2018-04-14T06:09:06.113Z,34.87
2018-04-14T06:11:33.664Z,35.27
2018-04-14T06:14:01.401Z,35.23
2018-04-14T06:16:28.939Z,35.80
2018-04-14T06:18:56.507Z,35.89
2018-04-14T06:21:24.105Z,35.23
2018-04-14T06:23:51.664Z,36.95
2018-04-14T06:26:19.212Z,36.28
2018-04-14T06:28:46.892Z,36.79
2018-04-14T06:31:14.456Z,37.32
2018-04-14T06:33:42.004Z,37.55
2018-04-14T06:36:09.684Z,37.05
2018-04-14T06:38:37.241Z,37.47
2018-04-14T06:41:04.797Z,37.18
2018-04-14T06:43:32.377Z,38.57
2018-04-14T06:45:59.935Z,38.87
2018-04-14T06:48:27.479Z,38.83
2018-04-14T06:50:55.151Z,38.86
2018-04-14T06:53:22.701Z,38.43
2018-04-14T06:55:50.279Z,37.54
2018-04-14T06:58:17.973Z,37.51
2018-04-14T07:00:45.572Z,37.18
2018-04-14T07:03:13.144Z,37.11
2018-04-14T07:05:40.917Z,37.89
2018-04-14T07:08:08.504Z,37.79
2018-04-14T07:10:36.056Z,37.05
2018-04-14T07:13:03.654Z,37.24
2018-04-14T07:15:31.191Z,37.97
2018-04-14T07:17:58.751Z,39.42
2018-04-14T07:20:26.485Z,38.95
2018-04-14T07:22:54.047Z,39.40
2018-04-14T07:25:21.609Z,38.73
2018-04-14T07:27:49.555Z,38.54
2018-04-14T07:30:17.097Z,38.02
2018-04-14T07:32:44.650Z,38.71
2018-04-14T07:35:12.388Z,38.28
2018-04-14T07:37:39.968Z,38.30
2018-04-14T07:40:07.522Z,38.19
2018-04-14T07:42:35.138Z,38.54
2018-04-14T07:45:02.741Z,38.54
2018-04-14T07:47:30.264Z,38.41
2018-04-14T07:49:57.917Z,39.10
2018-04-14T07:52:25.465Z,39.36
2018-04-14T07:54:53.001Z,39.55
2018-04-14T07:57:20.596Z,39.91
2018-04-14T07:59:48.152Z,40.94
2018-04-14T08:02:15.704Z,40.29
2018-04-14T08:04:43.402Z,40.32
2018-04-14T08:07:10.954Z,40.29
2018-04-14T08:09:38.505Z,39.87
2018-04-14T08:12:06.089Z,40.52
2018-04-14T08:14:33.640Z,40.67
2018-04-14T08:17:01.192Z,41.55
2018-04-14T08:19:28.789Z,41.78
2018-04-14T08:21:56.325Z,42.13
2018-04-14T08:24:23.887Z,42.74
2018-04-14T08:26:51.570Z,42.67
2018-04-14T08:29:19.116Z,42.54
2018-04-14T08:31:46.673Z,42.37
2018-04-14T08:34:14.407Z,42.52
2018-04-14T08:36:41.957Z,43.83
2018-04-14T08:39:09.509Z,43.14
2018-04-14T08:41:37.108Z,42.59
2018-04-14T08:44:04.663Z,42.67
2018-04-14T08:46:32.226Z,41.80
2018-04-14T08:48:59.984Z,42.16
2018-04-14T08:51:27.548Z,42.03
2018-04-14T08:53:55.101Z,43.03
2018-04-14T08:56:22.702Z,41.76
2018-04-14T08:58:50.298Z,41.69
2018-04-14T09:01:17.854Z,41.61
2018-04-14T09:03:45.425Z,42.18
2018-04-14T09:06:12.979Z,41.77
2018-04-14T09:08:40.562Z,42.06
2018-04-14T09:11:08.147Z,41.14
2018-04-14T09:13:35.695Z,42.27
2018-04-14T09:16:03.482Z,41.30
2018-04-14T09:18:31.018Z,41.06
2018-04-14T09:20:58.560Z,41.92
2018-04-14T09:23:26.144Z,41.79
2018-04-14T09:25:53.718Z,42.17
2018-04-14T09:28:21.263Z,42.44
2018-04-14T09:30:48.853Z,41.31
2018-04-14T09:33:16.418Z,41.49
2018-04-14T09:35:43.962Z,41.76
2018-04-14T09:38:11.830Z,42.16
2018-04-14T09:40:39.379Z,41.48
2018-04-14T09:43:06.936Z,41.35
2018-04-14T09:45:34.565Z,40.88
2018-04-14T09:48:02.117Z,40.49
2018-04-14T09:50:29.664Z,40.05
2018-04-14T09:52:57.568Z,40.22
2018-04-14T09:55:25.141Z,38.91
2018-04-14T09:57:52.697Z,40.04
2018-04-14T10:00:25.791Z,39.84
2018-04-14T10:02:53.397Z,37.74
2018-04-14T10:05:20.937Z,38.13
2018-04-14T10:07:48.522Z,37.12
2018-04-14T10:10:16.079Z,37.46
2018-04-14T10:12:43.631Z,37.66
2018-04-14T10:15:11.228Z,38.27
2018-04-14T10:17:38.775Z,37.13
2018-04-14T10:20:06.320Z,36.80
2018-04-14T10:22:33.902Z,37.22
2018-04-14T10:25:01.441Z,37.08
2018-04-14T10:27:29.004Z,36.77
2018-04-14T10:29:56.596Z,37.60
2018-04-14T10:32:24.184Z,38.44
2018-04-14T10:34:51.756Z,36.75
2018-04-14T10:37:19.492Z,36.69
2018-04-14T10:39:47.055Z,36.42
2018-04-14T10:42:14.602Z,36.01
2018-04-14T10:44:42.229Z,35.90
2018-04-14T10:47:09.782Z,35.25
2018-04-14T10:49:37.352Z,34.94
2018-04-14T10:52:05.084Z,35.24
2018-04-14T10:54:32.627Z,35.00
2018-04-14T10:57:00.196Z,34.33
2018-04-14T10:59:27.926Z,32.67
2018-04-14T11:01:55.486Z,31.97
2018-04-14T11:04:23.041Z,33.76
2018-04-14T11:06:50.740Z,33.51
2018-04-14T11:09:18.290Z,31.99
2018-04-14T11:11:45.823Z,31.95
2018-04-14T11:14:13.395Z,32.52
2018-04-14T11:16:40.939Z,33.35
2018-04-14T11:19:08.493Z,33.09
2018-04-14T11:21:36.239Z,32.58
2018-04-14T11:24:03.805Z,31.66
2018-04-14T11:26:31.365Z,31.15
2018-04-14T11:28:59.248Z,32.34
2018-04-14T11:31:26.849Z,32.44
2018-04-14T11:33:54.380Z,30.57
2018-04-14T11:36:21.983Z,30.46
2018-04-14T11:38:49.538Z,29.88
2018-04-14T11:41:17.094Z,30.29
2018-04-14T11:43:44.664Z,31.67
2018-04-14T11:46:12.207Z,32.08
2018-04-14T11:48:39.786Z,31.28
2018-04-14T11:51:07.388Z,31.97
2018-04-14T11:53:34.956Z,31.21
2018-04-14T11:56:02.522Z,31.60
2018-04-14T11:58:30.128Z,30.81
2018-04-14T12:00:57.672Z,30.83
2018-04-14T12:03:25.219Z,30.75
2018-04-14T12:05:52.894Z,30.46
2018-04-14T12:08:20.449Z,30.02
2018-04-14T12:10:47.997Z,29.89
2018-04-14T12:13:15.861Z,30.06
2018-04-14T12:15:43.411Z,29.59
2018-04-14T12:18:10.970Z,30.59
2018-04-14T12:20:38.712Z,30.39
2018-04-14T12:23:06.268Z,30.88
2018-04-14T12:25:33.811Z,30.90
2018-04-14T12:28:01.383Z,30.33
2018-04-14T12:30:28.934Z,30.98
2018-04-14T12:32:56.485Z,31.25
2018-04-14T12:35:24.114Z,31.13
2018-04-14T12:37:59.191Z,30.39
2018-04-14T12:40:26.957Z,30.52
2018-04-14T12:42:54.491Z,30.57
2018-04-14T12:45:22.056Z,29.30
2018-04-14T12:47:49.780Z,29.39
2018-04-14T12:50:17.329Z,29.18
2018-04-14T12:52:44.873Z,28.88
2018-04-14T12:55:12.461Z,27.96
2018-04-14T12:57:40.037Z,28.88
2018-04-14T13:00:07.632Z,28.89
2018-04-14T13:02:35.192Z,29.37
2018-04-14T13:05:02.745Z,29.83
2018-04-14T13:07:30.473Z,29.91
2018-04-14T13:09:58.023Z,30.05
2018-04-14T13:12:25.559Z,29.78
2018-04-14T13:14:53.280Z,31.04
2018-04-14T13:17:20.826Z,30.14
2018-04-14T13:19:48.364Z,30.25
2018-04-14T13:22:15.927Z,30.47
2018-04-14T13:24:44.076Z,30.33
2018-04-14T13:27:11.629Z,31.03
2018-04-14T13:29:39.497Z,30.23
2018-04-14T13:32:07.045Z,30.83
2018-04-14T13:34:34.601Z,30.76
2018-04-14T13:37:02.314Z,33.61
2018-04-14T13:39:29.940Z,35.27
2018-04-14T13:41:57.542Z,35.89
2018-04-14T13:44:25.314Z,36.11
2018-04-14T13:46:52.888Z,36.56
2018-04-14T13:49:20.442Z,36.46
2018-04-14T13:51:48.027Z,36.00
2018-04-14T13:54:15.576Z,36.95
2018-04-14T13:56:43.139Z,37.88
2018-04-14T13:59:10.710Z,37.83
2018-04-14T14:01:38.259Z,37.87
2018-04-14T14:04:05.863Z,38.12
2018-04-14T14:06:33.461Z,38.04
2018-04-14T14:09:01.009Z,38.28
2018-04-14T14:11:28.553Z,38.56
2018-04-14T14:13:56.165Z,38.77
2018-04-14T14:16:23.706Z,38.94
2018-04-14T14:18:51.250Z,38.46
2018-04-14T14:21:18.821Z,38.48
2018-04-14T14:23:46.359Z,38.94
2018-04-14T14:26:13.923Z,39.21
2018-04-14T14:28:41.500Z,39.54
2018-04-14T14:31:09.055Z,39.81
2018-04-14T14:33:36.633Z,40.03
2018-04-14T14:36:04.265Z,39.50
2018-04-14T14:38:31.815Z,39.86
2018-04-14T14:40:59.353Z,40.33
2018-04-14T14:43:27.051Z,40.52
2018-04-14T14:45:54.615Z,41.14
2018-04-14T14:48:22.191Z,41.26
2018-04-14T14:50:49.933Z,41.80
2018-04-14T14:53:17.472Z,41.88
2018-04-14T14:55:45.012Z,42.06
2018-04-14T14:58:12.695Z,42.31
2018-04-14T15:00:40.253Z,42.89
2018-04-14T15:03:07.822Z,43.26
2018-04-14T15:05:35.423Z,43.61
2018-04-14T15:08:02.998Z,44.01
2018-04-14T15:10:30.562Z,44.62
2018-04-14T15:12:58.149Z,45.33
2018-04-14T15:15:25.708Z,47.04
2018-04-14T15:17:53.262Z,48.61
2018-04-14T15:20:20.870Z,53.43
2018-04-14T15:22:48.451Z,55.11
2018-04-14T15:25:16.016Z,58.63
2018-04-14T15:27:43.613Z,59.01
2018-04-14T15:30:11.207Z,61.23
2018-04-14T15:32:38.812Z,61.52
2018-04-14T15:35:06.613Z,61.85
2018-04-14T15:37:34.172Z,62.90
2018-04-14T15:40:01.717Z,63.81
2018-04-14T15:42:29.316Z,64.53
2018-04-14T15:44:56.863Z,65.55
2018-04-14T15:47:24.437Z,66.63
2018-04-14T15:49:52.016Z,67.17
2018-04-14T15:52:19.612Z,68.83
2018-04-14T15:54:47.176Z,70.48
2018-04-14T15:57:14.993Z,74.35
2018-04-14T15:59:42.546Z,73.13
2018-04-14T16:02:10.119Z,74.83
2018-04-14T16:04:37.689Z,68.54
2018-04-14T16:07:06.077Z,73.30
2018-04-14T16:09:33.756Z,73.09
2018-04-14T16:12:01.312Z,72.70
2018-04-14T16:14:28.866Z,72.11
2018-04-14T16:16:56.620Z,71.93
2018-04-14T16:19:24.232Z,71.54
2018-04-14T16:21:51.811Z,72.31
2018-04-14T16:24:19.602Z,72.36
2018-04-14T16:26:47.170Z,72.75
2018-04-14T16:29:14.713Z,70.13
2018-04-14T16:31:42.599Z,72.74
2018-04-14T16:34:10.160Z,73.30
2018-04-14T16:36:37.710Z,73.48
2018-04-14T16:39:06.597Z,74.15
2018-04-14T16:41:34.148Z,74.61
2018-04-14T16:44:01.731Z,74.89
2018-04-14T16:46:29.491Z,75.17
2018-04-14T16:48:57.045Z,75.59
2018-04-14T16:51:24.609Z,75.66
2018-04-14T16:53:52.217Z,75.58
2018-04-14T16:56:19.799Z,75.59
2018-04-14T16:58:47.384Z,75.95
2018-04-14T17:01:15.336Z,75.69
2018-04-14T17:03:42.935Z,75.75
2018-04-14T17:06:10.500Z,75.69
2018-04-14T17:08:38.105Z,75.86
2018-04-14T17:11:05.698Z,75.77
2018-04-14T17:13:33.322Z,75.70
2018-04-14T17:16:01.027Z,75.68
2018-04-14T17:18:28.588Z,75.77
2018-04-14T17:20:56.161Z,75.70
2018-04-14T17:23:23.793Z,75.79
2018-04-14T17:25:51.354Z,75.62
2018-04-14T17:28:18.969Z,75.41
2018-04-14T17:30:46.667Z,75.09
2018-04-14T17:33:14.259Z,75.35
2018-04-14T17:35:41.830Z,75.09
2018-04-14T17:38:09.555Z,74.40
2018-04-14T17:40:38.036Z,74.81
2018-04-14T17:43:05.601Z,75.50
2018-04-14T17:45:33.308Z,75.62
2018-04-14T17:48:00.879Z,75.80
2018-04-14T17:50:28.446Z,76.28
2018-04-14T17:52:56.208Z,75.12
2018-04-14T17:55:23.775Z,75.50
2018-04-14T17:57:51.370Z,76.37
2018-04-14T18:00:19.087Z,75.16
2018-04-14T18:02:46.703Z,75.46
2018-04-14T18:05:14.321Z,75.11
2018-04-14T18:07:41.960Z,75.40
2018-04-14T18:10:09.560Z,75.11
2018-04-14T18:12:37.204Z,73.54
2018-04-14T18:15:04.959Z,73.90
2018-04-14T18:17:32.577Z,74.71
2018-04-14T18:20:00.165Z,74.12
2018-04-14T18:22:27.858Z,74.43
2018-04-14T18:24:55.420Z,74.04
2018-04-14T18:27:22.978Z,72.47
2018-04-14T18:29:50.594Z,73.12
2018-04-14T18:32:18.147Z,72.42
2018-04-14T18:34:45.708Z,73.01
2018-04-14T18:37:13.463Z,70.41
2018-04-14T18:39:41.033Z,70.69
2018-04-14T18:42:08.595Z,71.84
2018-04-14T18:44:36.328Z,71.05
2018-04-14T18:47:03.888Z,69.85
2018-04-14T18:49:31.475Z,68.00
2018-04-14T18:51:59.211Z,68.45
2018-04-14T18:54:26.793Z,66.84
2018-04-14T18:56:54.358Z,66.83
2018-04-14T18:59:22.177Z,66.73
2018-04-14T19:01:49.744Z,66.11
2018-04-14T19:04:17.354Z,65.05
2018-04-14T19:06:45.753Z,65.78
2018-04-14T19:09:13.331Z,67.79
2018-04-14T19:11:40.894Z,68.86
2018-04-14T19:14:08.865Z,69.58
2018-04-14T19:16:36.435Z,70.84
2018-04-14T19:19:04.049Z,69.32
2018-04-14T19:21:31.805Z,68.63
2018-04-14T19:23:59.374Z,67.58
2018-04-14T19:26:26.939Z,68.12
2018-04-14T19:28:54.667Z,67.98
2018-04-14T19:31:22.252Z,67.77
2018-04-14T19:33:49.812Z,66.09
2018-04-14T19:36:17.417Z,65.68
2018-04-14T19:38:44.969Z,64.83
2018-04-14T19:41:12.525Z,64.60
2018-04-14T19:43:40.297Z,63.97
2018-04-14T19:46:07.882Z,64.44
2018-04-14T19:48:35.490Z,63.93
2018-04-14T19:51:03.098Z,63.33
2018-04-14T19:53:30.659Z,62.71
2018-04-14T19:55:58.260Z,61.67
2018-04-14T19:58:25.876Z,61.09
2018-04-14T20:00:53.432Z,61.24
2018-04-14T20:03:20.998Z,61.90
2018-04-14T20:05:48.679Z,61.64
2018-04-14T20:08:16.277Z,60.80
2018-04-14T20:10:43.842Z,61.91
2018-04-14T20:13:11.427Z,61.58
2018-04-14T20:15:38.985Z,61.03
2018-04-14T20:18:06.561Z,60.99
2018-04-14T20:20:34.284Z,61.50
2018-04-14T20:23:01.848Z,59.49
2018-04-14T20:25:29.437Z,60.22
2018-04-14T20:27:57.183Z,60.45
2018-04-14T20:30:24.728Z,59.69
2018-04-14T20:32:52.299Z,59.64
2018-04-14T20:35:19.894Z,60.31
2018-04-14T20:37:47.453Z,60.06
2018-04-14T20:40:15.015Z,60.64
2018-04-14T20:42:42.771Z,60.56
2018-04-14T20:45:10.334Z,60.87
2018-04-14T20:47:37.891Z,61.24
2018-04-14T20:50:05.637Z,62.16
2018-04-14T20:52:33.207Z,62.75
2018-04-14T20:55:00.774Z,63.25
2018-04-14T20:57:28.411Z,64.25
2018-04-14T20:59:55.974Z,65.25
2018-04-14T21:02:23.532Z,66.09
2018-04-14T21:04:51.095Z,67.18
2018-04-14T21:07:18.714Z,66.89
2018-04-14T21:09:46.447Z,67.10
2018-04-14T21:12:14.010Z,67.68
2018-04-14T21:14:41.551Z,68.00
2018-04-14T21:17:09.276Z,68.19
2018-04-14T21:19:36.824Z,68.55
2018-04-14T21:25:02.779Z,69.24
2018-04-14T21:27:30.653Z,69.79
2018-04-14T21:29:58.214Z,69.23
2018-04-14T21:32:25.776Z,70.22
2018-04-14T21:34:53.360Z,69.57
2018-04-14T21:37:20.907Z,69.54
2018-04-14T21:39:48.467Z,69.87
2018-04-14T21:42:16.064Z,69.53
2018-04-14T21:44:43.604Z,70.15
2018-04-14T21:47:11.182Z,70.37
2018-04-14T21:49:38.917Z,70.23
2018-04-14T21:52:06.469Z,70.28
2018-04-14T21:54:34.025Z,70.73
2018-04-14T21:57:01.749Z,70.08
2018-04-14T21:59:29.314Z,70.22
2018-04-14T22:01:56.874Z,70.89
2018-04-14T22:04:24.436Z,70.78
2018-04-14T22:06:51.991Z,71.02
2018-04-14T22:09:19.581Z,71.24
2018-04-14T22:11:47.153Z,71.08
2018-04-14T22:14:26.369Z,71.45
2018-04-14T22:16:53.915Z,71.64
2018-04-14T22:19:21.485Z,71.72
2018-04-14T22:21:49.083Z,71.78
2018-04-14T22:24:16.627Z,71.54
2018-04-14T22:26:44.178Z,71.69
2018-04-14T22:29:11.768Z,72.03
2018-04-14T22:31:39.314Z,72.00
2018-04-14T22:34:06.872Z,71.78
2018-04-14T22:36:34.763Z,71.87
2018-04-14T22:39:02.347Z,72.10
2018-04-14T22:41:29.902Z,72.31
2018-04-14T22:43:57.636Z,72.11
2018-04-14T22:46:25.199Z,72.22
2018-04-14T22:48:52.753Z,72.52
2018-04-14T22:51:20.533Z,72.78
2018-04-14T22:53:48.080Z,72.66
2018-04-14T22:56:15.623Z,73.10
2018-04-14T22:58:43.198Z,72.95
2018-04-14T23:01:10.743Z,73.00
2018-04-14T23:03:38.287Z,73.26
2018-04-14T23:06:05.882Z,73.25
2018-04-14T23:08:33.462Z,73.50
2018-04-14T23:11:01.018Z,72.82
2018-04-14T23:13:28.723Z,72.43
2018-04-14T23:15:56.269Z,72.83
2018-04-14T23:18:23.820Z,72.49
2018-04-14T23:20:51.551Z,72.50
2018-04-14T23:23:19.097Z,72.73
2018-04-14T23:25:46.643Z,72.72
2018-04-14T23:28:14.378Z,72.27
2018-04-14T23:30:41.925Z,73.07
2018-04-14T23:33:09.466Z,72.97
2018-04-14T23:35:37.381Z,72.93
2018-04-14T23:38:04.983Z,73.11
2018-04-14T23:40:32.537Z,73.33
2018-04-14T23:43:00.121Z,73.13
2018-04-14T23:45:27.669Z,73.15
2018-04-14T23:47:55.220Z,73.47
2018-04-14T23:50:22.896Z,73.21
2018-04-14T23:52:50.440Z,73.27
2018-04-14T23:55:17.974Z,73.56
2018-04-14T23:57:45.572Z,73.74
